sensor_id;sensor_type;location;lat;lon;timestamp;P1;durP1;ratioP1;P2;durP2;ratioP2
4210;SDS011;2119;48.828;12.396;2022-12-18T00:04:58;61.75;;;23.70;;
4210;SDS011;2119;48.828;12.396;2022-12-18T00:09:58;54.20;;;21.30;;
4210;SDS011;2119;48.828;12.396;2022-12-18T00:14:59;53.28;;;20.38;;
4210;SDS011;2119;48.828;12.396;2022-12-18T00:19:59;69.27;;;22.93;;
4210;SDS011;2119;48.828;12.396;2022-12-18T00:24:59;63.83;;;21.90;;
4210;SDS011;2119;48.828;12.396;2022-12-18T00:30:00;66.20;;;22.50;;
4210;SDS011;2119;48.828;12.396;2022-12-18T00:35:00;63.87;;;21.47;;
4210;SDS011;2119;48.828;12.396;2022-12-18T00:40:00;55.83;;;20.63;;
4210;SDS011;2119;48.828;12.396;2022-12-18T00:45:01;51.13;;;20.85;;
4210;SDS011;2119;48.828;12.396;2022-12-18T00:50:02;58.47;;;20.90;;
4210;SDS011;2119;48.828;12.396;2022-12-18T00:55:02;67.10;;;21.27;;
4210;SDS011;2119;48.828;12.396;2022-12-18T01:00:04;61.90;;;21.43;;
4210;SDS011;2119;48.828;12.396;2022-12-18T01:05:05;55.20;;;19.53;;
4210;SDS011;2119;48.828;12.396;2022-12-18T01:10:06;57.67;;;20.93;;
4210;SDS011;2119;48.828;12.396;2022-12-18T01:15:06;62.70;;;20.80;;
4210;SDS011;2119;48.828;12.396;2022-12-18T01:20:07;52.87;;;19.37;;
4210;SDS011;2119;48.828;12.396;2022-12-18T01:25:07;55.90;;;19.70;;
4210;SDS011;2119;48.828;12.396;2022-12-18T01:30:08;52.53;;;19.37;;
4210;SDS011;2119;48.828;12.396;2022-12-18T01:35:08;52.47;;;18.90;;
4210;SDS011;2119;48.828;12.396;2022-12-18T01:40:09;46.23;;;18.60;;
4210;SDS011;2119;48.828;12.396;2022-12-18T01:50:18;54.22;;;19.10;;
4210;SDS011;2119;48.828;12.396;2022-12-18T01:55:20;52.50;;;20.50;;
4210;SDS011;2119;48.828;12.396;2022-12-18T02:00:22;47.67;;;19.20;;
4210;SDS011;2119;48.828;12.396;2022-12-18T02:10:58;45.77;;;18.43;;
4210;SDS011;2119;48.828;12.396;2022-12-18T02:16:13;49.67;;;18.67;;
4210;SDS011;2119;48.828;12.396;2022-12-18T02:21:28;49.33;;;19.00;;
4210;SDS011;2119;48.828;12.396;2022-12-18T02:26:50;46.07;;;17.70;;
4210;SDS011;2119;48.828;12.396;2022-12-18T02:31:54;49.37;;;18.10;;
4210;SDS011;2119;48.828;12.396;2022-12-18T02:36:57;45.57;;;16.77;;
4210;SDS011;2119;48.828;12.396;2022-12-18T02:41:58;45.50;;;17.83;;
4210;SDS011;2119;48.828;12.396;2022-12-18T02:46:59;42.03;;;18.00;;
4210;SDS011;2119;48.828;12.396;2022-12-18T03:13:12;43.97;;;19.60;;
4210;SDS011;2119;48.828;12.396;2022-12-18T03:18:16;46.50;;;20.13;;
4210;SDS011;2119;48.828;12.396;2022-12-18T03:23:18;44.90;;;18.20;;
4210;SDS011;2119;48.828;12.396;2022-12-18T03:28:21;48.17;;;19.33;;
4210;SDS011;2119;48.828;12.396;2022-12-18T03:33:29;40.90;;;17.53;;
4210;SDS011;2119;48.828;12.396;2022-12-18T03:38:31;41.80;;;17.37;;
4210;SDS011;2119;48.828;12.396;2022-12-18T03:43:38;43.50;;;18.60;;
4210;SDS011;2119;48.828;12.396;2022-12-18T03:48:44;36.97;;;17.60;;
4210;SDS011;2119;48.828;12.396;2022-12-18T03:58:47;44.00;;;17.58;;
4210;SDS011;2119;48.828;12.396;2022-12-18T04:03:48;44.23;;;18.37;;
4210;SDS011;2119;48.828;12.396;2022-12-18T04:08:49;47.47;;;19.37;;
4210;SDS011;2119;48.828;12.396;2022-12-18T04:13:50;53.57;;;19.83;;
4210;SDS011;2119;48.828;12.396;2022-12-18T04:18:50;51.72;;;19.45;;
4210;SDS011;2119;48.828;12.396;2022-12-18T04:23:50;42.22;;;17.48;;
4210;SDS011;2119;48.828;12.396;2022-12-18T04:28:51;43.90;;;15.57;;
4210;SDS011;2119;48.828;12.396;2022-12-18T04:33:51;41.45;;;17.70;;
4210;SDS011;2119;48.828;12.396;2022-12-18T04:38:51;39.97;;;19.02;;
4210;SDS011;2119;48.828;12.396;2022-12-18T04:43:51;58.33;;;21.15;;
4210;SDS011;2119;48.828;12.396;2022-12-18T04:48:51;52.72;;;20.00;;
4210;SDS011;2119;48.828;12.396;2022-12-18T04:53:52;55.47;;;21.67;;
4210;SDS011;2119;48.828;12.396;2022-12-18T04:58:52;46.07;;;19.00;;
4210;SDS011;2119;48.828;12.396;2022-12-18T05:03:53;42.28;;;17.73;;
4210;SDS011;2119;48.828;12.396;2022-12-18T05:08:53;42.67;;;17.75;;
4210;SDS011;2119;48.828;12.396;2022-12-18T05:13:53;45.67;;;18.65;;
4210;SDS011;2119;48.828;12.396;2022-12-18T05:18:54;44.95;;;18.70;;
4210;SDS011;2119;48.828;12.396;2022-12-18T05:23:55;48.70;;;19.80;;
4210;SDS011;2119;48.828;12.396;2022-12-18T05:28:55;55.50;;;18.13;;
4210;SDS011;2119;48.828;12.396;2022-12-18T05:33:55;43.20;;;17.85;;
4210;SDS011;2119;48.828;12.396;2022-12-18T05:38:56;52.83;;;18.95;;
4210;SDS011;2119;48.828;12.396;2022-12-18T05:43:56;46.15;;;18.83;;
4210;SDS011;2119;48.828;12.396;2022-12-18T05:48:58;52.67;;;21.63;;
4210;SDS011;2119;48.828;12.396;2022-12-18T05:53:59;52.60;;;18.90;;
4210;SDS011;2119;48.828;12.396;2022-12-18T05:59:00;53.83;;;20.88;;
4210;SDS011;2119;48.828;12.396;2022-12-18T06:04:00;58.57;;;21.60;;
4210;SDS011;2119;48.828;12.396;2022-12-18T06:09:00;55.00;;;22.45;;
4210;SDS011;2119;48.828;12.396;2022-12-18T06:14:01;53.80;;;20.73;;
4210;SDS011;2119;48.828;12.396;2022-12-18T06:19:02;56.77;;;20.07;;
4210;SDS011;2119;48.828;12.396;2022-12-18T06:24:03;61.80;;;19.70;;
4210;SDS011;2119;48.828;12.396;2022-12-18T06:29:05;52.13;;;19.23;;
4210;SDS011;2119;48.828;12.396;2022-12-18T06:34:07;59.97;;;19.87;;
4210;SDS011;2119;48.828;12.396;2022-12-18T06:39:07;47.90;;;19.40;;
4210;SDS011;2119;48.828;12.396;2022-12-18T06:44:08;53.97;;;20.73;;
4210;SDS011;2119;48.828;12.396;2022-12-18T06:49:08;54.70;;;20.92;;
4210;SDS011;2119;48.828;12.396;2022-12-18T06:54:09;54.77;;;20.73;;
4210;SDS011;2119;48.828;12.396;2022-12-18T06:59:09;56.53;;;21.63;;
4210;SDS011;2119;48.828;12.396;2022-12-18T07:04:09;56.28;;;19.23;;
4210;SDS011;2119;48.828;12.396;2022-12-18T07:09:10;52.67;;;20.30;;
4210;SDS011;2119;48.828;12.396;2022-12-18T07:14:10;55.35;;;21.98;;
4210;SDS011;2119;48.828;12.396;2022-12-18T07:19:10;56.05;;;19.85;;
4210;SDS011;2119;48.828;12.396;2022-12-18T07:24:11;48.08;;;17.42;;
4210;SDS011;2119;48.828;12.396;2022-12-18T07:29:12;41.70;;;19.03;;
4210;SDS011;2119;48.828;12.396;2022-12-18T07:34:13;36.70;;;17.00;;
4210;SDS011;2119;48.828;12.396;2022-12-18T07:39:16;40.20;;;18.00;;
4210;SDS011;2119;48.828;12.396;2022-12-18T07:44:16;47.40;;;17.43;;
4210;SDS011;2119;48.828;12.396;2022-12-18T07:49:17;41.17;;;17.50;;
4210;SDS011;2119;48.828;12.396;2022-12-18T07:54:17;48.78;;;20.27;;
4210;SDS011;2119;48.828;12.396;2022-12-18T07:59:17;43.17;;;19.17;;
4210;SDS011;2119;48.828;12.396;2022-12-18T08:04:18;43.90;;;18.90;;
4210;SDS011;2119;48.828;12.396;2022-12-18T08:09:18;55.05;;;21.00;;
4210;SDS011;2119;48.828;12.396;2022-12-18T08:14:18;40.80;;;18.05;;
4210;SDS011;2119;48.828;12.396;2022-12-18T08:19:18;48.28;;;18.00;;
4210;SDS011;2119;48.828;12.396;2022-12-18T08:24:19;43.42;;;17.52;;
4210;SDS011;2119;48.828;12.396;2022-12-18T08:29:19;42.15;;;17.52;;
4210;SDS011;2119;48.828;12.396;2022-12-18T08:34:19;41.17;;;17.50;;
4210;SDS011;2119;48.828;12.396;2022-12-18T08:39:20;42.53;;;17.95;;
4210;SDS011;2119;48.828;12.396;2022-12-18T08:44:20;48.10;;;17.63;;
4210;SDS011;2119;48.828;12.396;2022-12-18T08:49:42;39.87;;;15.50;;
4210;SDS011;2119;48.828;12.396;2022-12-18T08:54:42;43.83;;;18.83;;
4210;SDS011;2119;48.828;12.396;2022-12-18T08:59:43;35.27;;;16.37;;
4210;SDS011;2119;48.828;12.396;2022-12-18T09:04:46;36.23;;;15.57;;
4210;SDS011;2119;48.828;12.396;2022-12-18T09:09:48;42.00;;;16.30;;
4210;SDS011;2119;48.828;12.396;2022-12-18T09:14:48;39.60;;;19.50;;
4210;SDS011;2119;48.828;12.396;2022-12-18T09:19:48;30.10;;;15.10;;
4210;SDS011;2119;48.828;12.396;2022-12-18T09:24:49;36.13;;;16.30;;
4210;SDS011;2119;48.828;12.396;2022-12-18T09:29:49;32.42;;;13.65;;
4210;SDS011;2119;48.828;12.396;2022-12-18T09:34:49;36.58;;;14.98;;
4210;SDS011;2119;48.828;12.396;2022-12-18T09:39:50;37.47;;;16.48;;
4210;SDS011;2119;48.828;12.396;2022-12-18T09:44:53;37.10;;;15.80;;
4210;SDS011;2119;48.828;12.396;2022-12-18T09:49:55;39.83;;;15.87;;
4210;SDS011;2119;48.828;12.396;2022-12-18T09:54:58;50.70;;;19.53;;
4210;SDS011;2119;48.828;12.396;2022-12-18T10:00:20;54.03;;;19.70;;
4210;SDS011;2119;48.828;12.396;2022-12-18T10:05:25;40.03;;;18.20;;
4210;SDS011;2119;48.828;12.396;2022-12-18T10:20:54;49.07;;;20.00;;
4210;SDS011;2119;48.828;12.396;2022-12-18T10:25:58;51.30;;;20.00;;
4210;SDS011;2119;48.828;12.396;2022-12-18T10:31:01;48.93;;;19.40;;
4210;SDS011;2119;48.828;12.396;2022-12-18T10:36:01;53.27;;;19.47;;
4210;SDS011;2119;48.828;12.396;2022-12-18T10:46:12;53.73;;;20.20;;
4210;SDS011;2119;48.828;12.396;2022-12-18T10:51:28;52.33;;;19.70;;
4210;SDS011;2119;48.828;12.396;2022-12-18T10:56:29;46.93;;;20.03;;
4210;SDS011;2119;48.828;12.396;2022-12-18T11:06:53;47.27;;;19.23;;
4210;SDS011;2119;48.828;12.396;2022-12-18T11:11:54;38.20;;;18.30;;
4210;SDS011;2119;48.828;12.396;2022-12-18T11:16:55;43.80;;;17.50;;
4210;SDS011;2119;48.828;12.396;2022-12-18T11:21:56;42.83;;;18.30;;
4210;SDS011;2119;48.828;12.396;2022-12-18T11:27:06;41.97;;;19.30;;
4210;SDS011;2119;48.828;12.396;2022-12-18T11:37:34;46.13;;;20.90;;
4210;SDS011;2119;48.828;12.396;2022-12-18T11:42:42;41.00;;;17.40;;
4210;SDS011;2119;48.828;12.396;2022-12-18T11:47:51;44.97;;;18.90;;
4210;SDS011;2119;48.828;12.396;2022-12-18T11:52:52;36.97;;;18.40;;
4210;SDS011;2119;48.828;12.396;2022-12-18T11:58:01;48.07;;;19.50;;
4210;SDS011;2119;48.828;12.396;2022-12-18T12:39:36;52.23;;;22.00;;
4210;SDS011;2119;48.828;12.396;2022-12-18T12:44:46;45.33;;;20.07;;
4210;SDS011;2119;48.828;12.396;2022-12-18T12:49:50;60.00;;;20.60;;
4210;SDS011;2119;48.828;12.396;2022-12-18T12:54:50;47.17;;;18.40;;
4210;SDS011;2119;48.828;12.396;2022-12-18T12:59:55;52.13;;;19.20;;
4210;SDS011;2119;48.828;12.396;2022-12-18T13:25:28;54.37;;;20.40;;
4210;SDS011;2119;48.828;12.396;2022-12-18T13:35:40;44.30;;;19.20;;
4210;SDS011;2119;48.828;12.396;2022-12-18T13:56:15;59.50;;;21.67;;
4210;SDS011;2119;48.828;12.396;2022-12-18T14:06:26;53.07;;;24.27;;
4210;SDS011;2119;48.828;12.396;2022-12-18T14:11:26;57.17;;;26.63;;
4210;SDS011;2119;48.828;12.396;2022-12-18T14:16:26;60.67;;;25.50;;
4210;SDS011;2119;48.828;12.396;2022-12-18T14:21:33;59.30;;;23.75;;
4210;SDS011;2119;48.828;12.396;2022-12-18T14:26:35;62.43;;;22.00;;
4210;SDS011;2119;48.828;12.396;2022-12-18T14:31:35;49.53;;;20.00;;
4210;SDS011;2119;48.828;12.396;2022-12-18T14:36:36;48.13;;;20.92;;
4210;SDS011;2119;48.828;12.396;2022-12-18T14:41:45;46.70;;;20.73;;
4210;SDS011;2119;48.828;12.396;2022-12-18T14:46:49;48.50;;;21.23;;
4210;SDS011;2119;48.828;12.396;2022-12-18T14:52:03;69.33;;;29.67;;
4210;SDS011;2119;48.828;12.396;2022-12-18T14:57:24;55.50;;;24.57;;
4210;SDS011;2119;48.828;12.396;2022-12-18T15:02:25;52.50;;;24.60;;
4210;SDS011;2119;48.828;12.396;2022-12-18T15:07:26;71.90;;;28.83;;
4210;SDS011;2119;48.828;12.396;2022-12-18T15:12:33;66.03;;;26.17;;
4210;SDS011;2119;48.828;12.396;2022-12-18T15:17:34;61.43;;;24.50;;
4210;SDS011;2119;48.828;12.396;2022-12-18T15:22:34;63.67;;;25.90;;
4210;SDS011;2119;48.828;12.396;2022-12-18T15:27:36;60.63;;;24.70;;
4210;SDS011;2119;48.828;12.396;2022-12-18T15:32:37;49.77;;;21.60;;
4210;SDS011;2119;48.828;12.396;2022-12-18T15:37:38;54.40;;;23.07;;
4210;SDS011;2119;48.828;12.396;2022-12-18T15:42:39;90.30;;;34.42;;
4210;SDS011;2119;48.828;12.396;2022-12-18T15:47:58;90.80;;;35.30;;
4210;SDS011;2119;48.828;12.396;2022-12-18T15:52:59;165.07;;;55.77;;
4210;SDS011;2119;48.828;12.396;2022-12-18T15:57:59;124.57;;;44.83;;
4210;SDS011;2119;48.828;12.396;2022-12-18T16:03:00;69.63;;;28.65;;
4210;SDS011;2119;48.828;12.396;2022-12-18T16:08:00;56.03;;;24.52;;
4210;SDS011;2119;48.828;12.396;2022-12-18T16:13:00;51.80;;;24.85;;
4210;SDS011;2119;48.828;12.396;2022-12-18T16:18:00;48.08;;;20.83;;
4210;SDS011;2119;48.828;12.396;2022-12-18T16:23:01;43.50;;;19.55;;
4210;SDS011;2119;48.828;12.396;2022-12-18T16:28:01;48.70;;;20.65;;
4210;SDS011;2119;48.828;12.396;2022-12-18T16:33:01;72.85;;;27.00;;
4210;SDS011;2119;48.828;12.396;2022-12-18T16:38:01;66.78;;;27.40;;
4210;SDS011;2119;48.828;12.396;2022-12-18T16:43:02;45.47;;;19.08;;
4210;SDS011;2119;48.828;12.396;2022-12-18T16:48:02;42.47;;;20.00;;
4210;SDS011;2119;48.828;12.396;2022-12-18T16:53:03;46.47;;;21.20;;
4210;SDS011;2119;48.828;12.396;2022-12-18T16:58:03;50.88;;;21.50;;
4210;SDS011;2119;48.828;12.396;2022-12-18T17:03:03;46.42;;;21.92;;
4210;SDS011;2119;48.828;12.396;2022-12-18T17:08:04;44.13;;;18.67;;
4210;SDS011;2119;48.828;12.396;2022-12-18T17:13:04;40.47;;;19.00;;
4210;SDS011;2119;48.828;12.396;2022-12-18T17:18:04;42.97;;;22.53;;
4210;SDS011;2119;48.828;12.396;2022-12-18T17:23:05;46.25;;;23.90;;
4210;SDS011;2119;48.828;12.396;2022-12-18T17:28:08;42.80;;;19.80;;
4210;SDS011;2119;48.828;12.396;2022-12-18T17:33:08;50.67;;;21.80;;
4210;SDS011;2119;48.828;12.396;2022-12-18T17:38:09;56.38;;;22.92;;
4210;SDS011;2119;48.828;12.396;2022-12-18T17:43:09;65.60;;;24.77;;
4210;SDS011;2119;48.828;12.396;2022-12-18T17:48:10;53.07;;;22.00;;
4210;SDS011;2119;48.828;12.396;2022-12-18T17:53:10;49.03;;;21.63;;
4210;SDS011;2119;48.828;12.396;2022-12-18T17:58:10;59.53;;;21.00;;
4210;SDS011;2119;48.828;12.396;2022-12-18T18:03:10;41.47;;;19.13;;
4210;SDS011;2119;48.828;12.396;2022-12-18T18:08:11;41.47;;;19.00;;
4210;SDS011;2119;48.828;12.396;2022-12-18T18:13:22;39.20;;;18.47;;
4210;SDS011;2119;48.828;12.396;2022-12-18T18:18:52;35.57;;;16.83;;
4210;SDS011;2119;48.828;12.396;2022-12-18T18:23:52;38.10;;;18.70;;
4210;SDS011;2119;48.828;12.396;2022-12-18T18:28:53;44.20;;;18.93;;
4210;SDS011;2119;48.828;12.396;2022-12-18T18:33:53;43.22;;;19.92;;
4210;SDS011;2119;48.828;12.396;2022-12-18T18:38:53;48.85;;;20.85;;
4210;SDS011;2119;48.828;12.396;2022-12-18T18:43:54;48.43;;;21.17;;
4210;SDS011;2119;48.828;12.396;2022-12-18T18:48:55;55.00;;;23.67;;
4210;SDS011;2119;48.828;12.396;2022-12-18T18:53:56;53.47;;;21.97;;
4210;SDS011;2119;48.828;12.396;2022-12-18T18:58:56;47.33;;;22.25;;
4210;SDS011;2119;48.828;12.396;2022-12-18T19:03:56;51.83;;;21.52;;
4210;SDS011;2119;48.828;12.396;2022-12-18T19:08:56;43.45;;;20.10;;
4210;SDS011;2119;48.828;12.396;2022-12-18T19:13:57;47.37;;;20.90;;
4210;SDS011;2119;48.828;12.396;2022-12-18T19:18:58;48.20;;;20.77;;
4210;SDS011;2119;48.828;12.396;2022-12-18T19:23:59;45.63;;;21.20;;
4210;SDS011;2119;48.828;12.396;2022-12-18T19:29:01;78.17;;;36.77;;
4210;SDS011;2119;48.828;12.396;2022-12-18T19:34:01;56.63;;;27.47;;
4210;SDS011;2119;48.828;12.396;2022-12-18T19:39:07;54.03;;;24.27;;
4210;SDS011;2119;48.828;12.396;2022-12-18T19:44:13;58.07;;;25.17;;
4210;SDS011;2119;48.828;12.396;2022-12-18T19:49:14;55.93;;;25.37;;
4210;SDS011;2119;48.828;12.396;2022-12-18T19:54:16;56.00;;;25.80;;
4210;SDS011;2119;48.828;12.396;2022-12-18T19:59:18;51.53;;;25.57;;
4210;SDS011;2119;48.828;12.396;2022-12-18T20:04:18;49.27;;;22.63;;
4210;SDS011;2119;48.828;12.396;2022-12-18T20:09:19;49.20;;;21.42;;
4210;SDS011;2119;48.828;12.396;2022-12-18T20:14:19;46.90;;;21.30;;
4210;SDS011;2119;48.828;12.396;2022-12-18T20:19:20;45.67;;;20.87;;
4210;SDS011;2119;48.828;12.396;2022-12-18T20:24:21;49.30;;;21.30;;
4210;SDS011;2119;48.828;12.396;2022-12-18T20:29:21;49.22;;;21.35;;
4210;SDS011;2119;48.828;12.396;2022-12-18T20:34:21;54.50;;;21.40;;
4210;SDS011;2119;48.828;12.396;2022-12-18T20:39:22;44.08;;;20.15;;
4210;SDS011;2119;48.828;12.396;2022-12-18T20:44:25;48.37;;;20.20;;
4210;SDS011;2119;48.828;12.396;2022-12-18T20:49:28;42.57;;;20.00;;
4210;SDS011;2119;48.828;12.396;2022-12-18T20:54:28;44.87;;;18.80;;
4210;SDS011;2119;48.828;12.396;2022-12-18T20:59:30;43.40;;;18.67;;
4210;SDS011;2119;48.828;12.396;2022-12-18T21:04:30;41.67;;;19.67;;
4210;SDS011;2119;48.828;12.396;2022-12-18T21:09:30;37.17;;;17.58;;
4210;SDS011;2119;48.828;12.396;2022-12-18T21:14:31;41.73;;;18.10;;
4210;SDS011;2119;48.828;12.396;2022-12-18T21:19:32;47.53;;;20.97;;
4210;SDS011;2119;48.828;12.396;2022-12-18T21:24:33;38.13;;;16.70;;
4210;SDS011;2119;48.828;12.396;2022-12-18T21:29:33;36.87;;;17.97;;
4210;SDS011;2119;48.828;12.396;2022-12-18T21:34:34;36.07;;;17.80;;
4210;SDS011;2119;48.828;12.396;2022-12-18T21:39:34;44.72;;;19.50;;
4210;SDS011;2119;48.828;12.396;2022-12-18T21:44:34;42.88;;;18.65;;
4210;SDS011;2119;48.828;12.396;2022-12-18T21:49:34;41.53;;;19.25;;
4210;SDS011;2119;48.828;12.396;2022-12-18T21:54:36;40.00;;;18.42;;
4210;SDS011;2119;48.828;12.396;2022-12-18T21:59:37;46.00;;;18.47;;
4210;SDS011;2119;48.828;12.396;2022-12-18T22:04:38;40.63;;;19.77;;
4210;SDS011;2119;48.828;12.396;2022-12-18T22:09:38;45.47;;;19.97;;
4210;SDS011;2119;48.828;12.396;2022-12-18T22:14:38;48.50;;;20.38;;
4210;SDS011;2119;48.828;12.396;2022-12-18T22:19:39;53.30;;;21.50;;
4210;SDS011;2119;48.828;12.396;2022-12-18T22:24:40;50.77;;;20.23;;
4210;SDS011;2119;48.828;12.396;2022-12-18T22:29:40;44.53;;;20.02;;
4210;SDS011;2119;48.828;12.396;2022-12-18T22:35:00;56.40;;;20.50;;
4210;SDS011;2119;48.828;12.396;2022-12-18T22:40:00;43.63;;;20.37;;
4210;SDS011;2119;48.828;12.396;2022-12-18T22:45:00;43.85;;;18.48;;
4210;SDS011;2119;48.828;12.396;2022-12-18T22:50:01;42.80;;;19.25;;
4210;SDS011;2119;48.828;12.396;2022-12-18T22:55:02;44.23;;;20.13;;
4210;SDS011;2119;48.828;12.396;2022-12-18T23:00:03;45.27;;;20.27;;
4210;SDS011;2119;48.828;12.396;2022-12-18T23:05:03;40.47;;;19.80;;
4210;SDS011;2119;48.828;12.396;2022-12-18T23:10:04;43.80;;;19.30;;
4210;SDS011;2119;48.828;12.396;2022-12-18T23:15:04;40.17;;;19.67;;
4210;SDS011;2119;48.828;12.396;2022-12-18T23:20:05;46.37;;;20.10;;
4210;SDS011;2119;48.828;12.396;2022-12-18T23:25:05;40.97;;;19.37;;
4210;SDS011;2119;48.828;12.396;2022-12-18T23:30:05;36.80;;;18.97;;
4210;SDS011;2119;48.828;12.396;2022-12-18T23:40:21;40.17;;;17.50;;
4210;SDS011;2119;48.828;12.396;2022-12-18T23:45:36;51.23;;;19.90;;
4210;SDS011;2119;48.828;12.396;2022-12-18T23:55:42;39.53;;;19.87;;
